sensor_id;sensor_type;location;lat;lon;timestamp;pressure;altitude;pressure_sealevel;temperature;humidity
46886;BME280;32622;48.202;11.326;2023-05-03T16:05:45;1024.17;;;12.54;34.82
46886;BME280;32622;48.202;11.326;2023-05-03T16:08:09;1024.21;;;12.25;34.96
46886;BME280;32622;48.202;11.326;2023-05-03T16:10:13;1024.47;;;11.16;33.91
46886;BME280;32622;48.202;11.326;2023-05-03T16:12:16;1024.41;;;11.67;33.42
46886;BME280;32622;48.202;11.326;2023-05-03T16:14:21;1024.13;;;12.46;31.81
46886;BME280;32622;48.202;11.326;2023-05-03T16:16:24;1024.32;;;12.04;31.84
46886;BME280;32622;48.202;11.326;2023-05-03T16:18:27;1024.27;;;11.64;32.37
46886;BME280;32622;48.202;11.326;2023-05-03T16:20:31;1024.08;;;12.44;31.37
46886;BME280;32622;48.202;11.326;2023-05-03T16:22:50;1024.38;;;11.60;32.77
46886;BME280;32622;48.202;11.326;2023-05-03T16:24:55;1024.48;;;11.05;33.34
46886;BME280;32622;48.202;11.326;2023-05-03T16:32:05;1023.83;;;13.79;32.97
46886;BME280;32622;48.202;11.326;2023-05-03T16:41:05;1024.31;;;11.46;37.06
46886;BME280;32622;48.202;11.326;2023-05-03T16:45:19;1024.00;;;12.77;35.34
46886;BME280;32622;48.202;11.326;2023-05-03T16:49:49;1024.14;;;12.61;33.99
46886;BME280;32622;48.202;11.326;2023-05-03T16:53:55;1023.96;;;13.21;33.20
46886;BME280;32622;48.202;11.326;2023-05-03T16:56:22;1024.22;;;12.10;33.84
46886;BME280;32622;48.202;11.326;2023-05-03T16:58:29;1023.98;;;13.00;32.22
46886;BME280;32622;48.202;11.326;2023-05-03T17:03:45;1024.05;;;12.77;34.15
46886;BME280;32622;48.202;11.326;2023-05-03T17:06:18;1024.18;;;12.03;34.80
46886;BME280;32622;48.202;11.326;2023-05-03T17:08:36;1024.42;;;10.93;36.18
46886;BME280;32622;48.202;11.326;2023-05-03T17:11:08;1024.56;;;10.48;35.71
46886;BME280;32622;48.202;11.326;2023-05-03T17:13:17;1024.26;;;11.74;33.95
46886;BME280;32622;48.202;11.326;2023-05-03T17:15:24;1024.49;;;11.00;34.79
46886;BME280;32622;48.202;11.326;2023-05-03T17:17:59;1024.51;;;10.70;36.42
46886;BME280;32622;48.202;11.326;2023-05-03T17:20:42;1024.46;;;11.04;35.43
46886;BME280;32622;48.202;11.326;2023-05-03T17:23:13;1024.35;;;11.42;36.27
46886;BME280;32622;48.202;11.326;2023-05-03T17:25:16;1024.65;;;10.12;36.74
46886;BME280;32622;48.202;11.326;2023-05-03T17:27:20;1024.72;;;9.62;36.99
46886;BME280;32622;48.202;11.326;2023-05-03T17:29:23;1024.86;;;9.26;37.19
46886;BME280;32622;48.202;11.326;2023-05-03T17:31:27;1024.70;;;9.70;36.55
46886;BME280;32622;48.202;11.326;2023-05-03T17:33:31;1024.65;;;9.98;35.76
46886;BME280;32622;48.202;11.326;2023-05-03T17:35:36;1024.46;;;11.01;34.12
46886;BME280;32622;48.202;11.326;2023-05-03T17:37:41;1024.57;;;10.50;34.61
46886;BME280;32622;48.202;11.326;2023-05-03T17:39:48;1024.43;;;11.24;33.69
46886;BME280;32622;48.202;11.326;2023-05-03T17:41:52;1024.60;;;10.65;33.85
46886;BME280;32622;48.202;11.326;2023-05-03T17:43:55;1024.40;;;11.29;33.47
46886;BME280;32622;48.202;11.326;2023-05-03T17:46:05;1024.68;;;9.96;34.75
46886;BME280;32622;48.202;11.326;2023-05-03T17:48:19;1024.54;;;10.68;33.97
46886;BME280;32622;48.202;11.326;2023-05-03T17:50:24;1024.54;;;10.58;33.89
46886;BME280;32622;48.202;11.326;2023-05-03T17:54:50;1024.36;;;11.47;33.05
46886;BME280;32622;48.202;11.326;2023-05-03T17:56:53;1024.64;;;10.42;34.40
46886;BME280;32622;48.202;11.326;2023-05-03T17:58:57;1024.66;;;10.52;33.97
46886;BME280;32622;48.202;11.326;2023-05-03T18:01:00;1024.56;;;10.76;33.84
46886;BME280;32622;48.202;11.326;2023-05-03T18:03:03;1024.27;;;11.64;32.37
46886;BME280;32622;48.202;11.326;2023-05-03T18:05:06;1024.30;;;11.62;33.49
46886;BME280;32622;48.202;11.326;2023-05-03T18:07:09;1024.50;;;11.04;35.24
46886;BME280;32622;48.202;11.326;2023-05-03T18:09:11;1024.33;;;11.65;33.79
46886;BME280;32622;48.202;11.326;2023-05-03T18:11:14;1024.15;;;12.37;32.69
46886;BME280;32622;48.202;11.326;2023-05-03T18:13:16;1024.09;;;12.49;32.59
46886;BME280;32622;48.202;11.326;2023-05-03T18:15:19;1024.11;;;12.40;32.16
46886;BME280;32622;48.202;11.326;2023-05-03T18:17:22;1024.25;;;11.87;32.62
46886;BME280;32622;48.202;11.326;2023-05-03T18:19:24;1024.31;;;11.71;32.86
46886;BME280;32622;48.202;11.326;2023-05-03T18:21:26;1024.37;;;11.57;33.10
46886;BME280;32622;48.202;11.326;2023-05-03T18:23:29;1024.15;;;12.26;32.19
46886;BME280;32622;48.202;11.326;2023-05-03T18:25:31;1024.35;;;11.44;32.14
46886;BME280;32622;48.202;11.326;2023-05-03T18:27:34;1024.27;;;11.64;32.09
46886;BME280;32622;48.202;11.326;2023-05-03T18:29:36;1024.32;;;11.60;32.01
46886;BME280;32622;48.202;11.326;2023-05-03T18:31:39;1024.07;;;12.71;30.82
46886;BME280;32622;48.202;11.326;2023-05-03T18:33:41;1024.64;;;10.79;33.23
46886;BME280;32622;48.202;11.326;2023-05-03T18:35:46;1024.24;;;12.27;31.47
46886;BME280;32622;48.202;11.326;2023-05-03T18:37:51;1024.32;;;11.88;31.64
46886;BME280;32622;48.202;11.326;2023-05-03T18:39:54;1024.09;;;13.07;30.67
46886;BME280;32622;48.202;11.326;2023-05-03T18:41:56;1024.18;;;12.83;29.95
46886;BME280;32622;48.202;11.326;2023-05-03T18:43:59;1024.10;;;13.26;29.86
46886;BME280;32622;48.202;11.326;2023-05-03T18:46:03;1024.36;;;12.19;31.00
46886;BME280;32622;48.202;11.326;2023-05-03T18:48:06;1024.25;;;12.79;30.63
46886;BME280;32622;48.202;11.326;2023-05-03T18:50:30;1024.24;;;12.82;30.07
46886;BME280;32622;48.202;11.326;2023-05-03T18:52:33;1024.39;;;12.26;30.75
46886;BME280;32622;48.202;11.326;2023-05-03T18:54:35;1024.27;;;12.76;30.41
46886;BME280;32622;48.202;11.326;2023-05-03T18:56:39;1024.16;;;13.26;29.40
46886;BME280;32622;48.202;11.326;2023-05-03T19:24:10;1023.98;;;15.22;31.34
46886;BME280;32622;48.202;11.326;2023-05-03T19:26:14;1024.89;;;11.36;32.67
46886;BME280;32622;48.202;11.326;2023-05-03T19:28:17;1025.07;;;10.57;32.73
46886;BME280;32622;48.202;11.326;2023-05-03T19:30:21;1024.57;;;12.45;31.76
46886;BME280;32622;48.202;11.326;2023-05-03T19:32:25;1024.79;;;11.70;32.16
46886;BME280;32622;48.202;11.326;2023-05-03T19:34:29;1025.09;;;10.59;33.44
46886;BME280;32622;48.202;11.326;2023-05-03T19:36:33;1025.18;;;9.99;34.59
46886;BME280;32622;48.202;11.326;2023-05-03T19:38:37;1024.55;;;12.41;32.12
46886;BME280;32622;48.202;11.326;2023-05-03T19:40:41;1024.70;;;11.77;32.45
46886;BME280;32622;48.202;11.326;2023-05-03T19:42:56;1025.05;;;10.45;34.47
46886;BME280;32622;48.202;11.326;2023-05-03T19:45:02;1024.96;;;10.75;34.23
46886;BME280;32622;48.202;11.326;2023-05-03T19:47:05;1024.97;;;10.70;34.51
46886;BME280;32622;48.202;11.326;2023-05-03T19:49:08;1025.27;;;9.35;37.22
46886;BME280;32622;48.202;11.326;2023-05-03T19:51:13;1025.06;;;10.14;36.37
46886;BME280;32622;48.202;11.326;2023-05-03T19:53:16;1025.07;;;10.36;35.38
46886;BME280;32622;48.202;11.326;2023-05-03T19:55:19;1025.43;;;8.83;37.29
46886;BME280;32622;48.202;11.326;2023-05-03T19:57:23;1024.97;;;10.96;35.10
46886;BME280;32622;48.202;11.326;2023-05-03T19:59:26;1024.84;;;11.51;34.67
46886;BME280;32622;48.202;11.326;2023-05-03T20:01:30;1025.01;;;10.81;35.83
46886;BME280;32622;48.202;11.326;2023-05-03T20:03:33;1025.06;;;10.59;35.52
46886;BME280;32622;48.202;11.326;2023-05-03T20:05:36;1024.66;;;12.12;34.16
46886;BME280;32622;48.202;11.326;2023-05-03T20:07:39;1024.82;;;11.51;34.58
46886;BME280;32622;48.202;11.326;2023-05-03T20:09:42;1024.73;;;11.77;33.90
46886;BME280;32622;48.202;11.326;2023-05-03T20:11:46;1025.05;;;10.71;35.09
46886;BME280;32622;48.202;11.326;2023-05-03T20:13:49;1024.74;;;11.88;33.97
46886;BME280;32622;48.202;11.326;2023-05-03T20:15:52;1024.92;;;11.25;35.07
46886;BME280;32622;48.202;11.326;2023-05-03T20:17:56;1024.61;;;12.44;33.39
46886;BME280;32622;48.202;11.326;2023-05-03T20:20:06;1024.93;;;11.36;34.50
46886;BME280;32622;48.202;11.326;2023-05-03T20:22:09;1024.66;;;12.44;33.45
46886;BME280;32622;48.202;11.326;2023-05-03T20:24:12;1024.69;;;12.27;33.63
46886;BME280;32622;48.202;11.326;2023-05-03T20:26:15;1024.64;;;12.54;33.41
46886;BME280;32622;48.202;11.326;2023-05-03T20:28:18;1024.61;;;12.65;33.24
46886;BME280;32622;48.202;11.326;2023-05-03T20:30:22;1024.46;;;13.25;32.60
46886;BME280;32622;48.202;11.326;2023-05-03T20:32:25;1024.38;;;13.40;32.31
46886;BME280;32622;48.202;11.326;2023-05-03T20:34:28;1024.56;;;12.61;32.33
46886;BME280;32622;48.202;11.326;2023-05-03T20:36:31;1024.45;;;13.07;31.89
46886;BME280;32622;48.202;11.326;2023-05-03T20:38:35;1024.63;;;12.28;32.48
46886;BME280;32622;48.202;11.326;2023-05-03T20:40:38;1024.44;;;13.07;31.81
46886;BME280;32622;48.202;11.326;2023-05-03T20:42:41;1024.32;;;13.61;31.66
46886;BME280;32622;48.202;11.326;2023-05-03T20:44:44;1024.39;;;13.25;31.59
46886;BME280;32622;48.202;11.326;2023-05-03T20:46:47;1024.36;;;13.56;31.26
46886;BME280;32622;48.202;11.326;2023-05-03T20:48:50;1024.37;;;13.70;31.09
46886;BME280;32622;48.202;11.326;2023-05-03T20:50:54;1024.42;;;13.38;31.10
46886;BME280;32622;48.202;11.326;2023-05-03T20:52:57;1024.28;;;13.92;30.84
46886;BME280;32622;48.202;11.326;2023-05-03T20:55:00;1024.29;;;13.94;30.84
46886;BME280;32622;48.202;11.326;2023-05-03T20:57:03;1024.47;;;13.04;31.36
46886;BME280;32622;48.202;11.326;2023-05-03T20:59:07;1024.43;;;13.30;31.29
46886;BME280;32622;48.202;11.326;2023-05-03T21:01:10;1024.46;;;13.07;31.45
46886;BME280;32622;48.202;11.326;2023-05-03T21:03:13;1024.52;;;12.71;31.87
46886;BME280;32622;48.202;11.326;2023-05-03T21:05:17;1024.42;;;12.95;32.11
46886;BME280;32622;48.202;11.326;2023-05-03T21:07:20;1024.37;;;13.03;32.67
46886;BME280;32622;48.202;11.326;2023-05-03T21:09:23;1024.28;;;13.43;32.00
46886;BME280;32622;48.202;11.326;2023-05-03T21:11:26;1024.46;;;12.50;33.48
46886;BME280;32622;48.202;11.326;2023-05-03T21:13:29;1024.39;;;12.77;32.88
46886;BME280;32622;48.202;11.326;2023-05-03T21:15:32;1024.37;;;12.81;32.80
46886;BME280;32622;48.202;11.326;2023-05-03T21:17:35;1024.54;;;12.06;33.50
46886;BME280;32622;48.202;11.326;2023-05-03T21:19:39;1024.52;;;12.00;33.89
46886;BME280;32622;48.202;11.326;2023-05-03T21:21:42;1024.45;;;12.25;33.54
46886;BME280;32622;48.202;11.326;2023-05-03T21:23:45;1024.56;;;11.69;33.91
46886;BME280;32622;48.202;11.326;2023-05-03T21:25:49;1024.31;;;12.93;33.26
46886;BME280;32622;48.202;11.326;2023-05-03T21:27:52;1024.32;;;12.82;33.41
46886;BME280;32622;48.202;11.326;2023-05-03T21:29:55;1024.37;;;12.52;33.55
46886;BME280;32622;48.202;11.326;2023-05-03T21:31:58;1024.43;;;12.23;33.86
46886;BME280;32622;48.202;11.326;2023-05-03T21:34:02;1024.42;;;12.02;34.05
46886;BME280;32622;48.202;11.326;2023-05-03T21:36:05;1024.28;;;12.41;33.56
46886;BME280;32622;48.202;11.326;2023-05-03T21:38:09;1024.26;;;12.30;33.53
46886;BME280;32622;48.202;11.326;2023-05-03T21:40:12;1024.42;;;11.53;34.39
46886;BME280;32622;48.202;11.326;2023-05-03T21:42:15;1024.24;;;12.18;33.85
46886;BME280;32622;48.202;11.326;2023-05-03T21:44:19;1024.16;;;12.55;33.51
46886;BME280;32622;48.202;11.326;2023-05-03T21:46:22;1024.36;;;11.71;34.16
46886;BME280;32622;48.202;11.326;2023-05-03T21:48:25;1024.29;;;12.00;34.02
46886;BME280;32622;48.202;11.326;2023-05-03T21:50:28;1024.23;;;12.40;33.63
46886;BME280;32622;48.202;11.326;2023-05-03T21:52:31;1024.22;;;12.59;33.25
46886;BME280;32622;48.202;11.326;2023-05-03T21:54:35;1024.25;;;12.53;33.38
46886;BME280;32622;48.202;11.326;2023-05-03T21:56:38;1024.30;;;12.18;33.95
46886;BME280;32622;48.202;11.326;2023-05-03T21:58:42;1024.35;;;11.85;34.35
46886;BME280;32622;48.202;11.326;2023-05-03T22:00:45;1024.38;;;11.66;34.52
46886;BME280;32622;48.202;11.326;2023-05-03T22:02:49;1024.34;;;11.70;34.29
46886;BME280;32622;48.202;11.326;2023-05-03T22:04:52;1024.20;;;12.27;33.62
46886;BME280;32622;48.202;11.326;2023-05-03T22:06:56;1024.18;;;12.55;33.15
46886;BME280;32622;48.202;11.326;2023-05-03T22:08:59;1024.15;;;12.70;32.86
46886;BME280;32622;48.202;11.326;2023-05-03T22:11:04;1024.23;;;12.43;32.88
46886;BME280;32622;48.202;11.326;2023-05-03T22:13:07;1024.17;;;12.58;32.71
46886;BME280;32622;48.202;11.326;2023-05-03T22:15:11;1024.13;;;12.76;32.65
46886;BME280;32622;48.202;11.326;2023-05-03T22:17:14;1024.28;;;12.12;33.36
46886;BME280;32622;48.202;11.326;2023-05-03T22:19:17;1024.23;;;12.08;33.44
46886;BME280;32622;48.202;11.326;2023-05-03T22:21:20;1024.38;;;11.46;34.15
46886;BME280;32622;48.202;11.326;2023-05-03T22:23:25;1024.38;;;11.62;34.89
46886;BME280;32622;48.202;11.326;2023-05-03T22:25:29;1024.23;;;12.22;34.13
46886;BME280;32622;48.202;11.326;2023-05-03T22:27:32;1024.37;;;11.45;34.62
46886;BME280;32622;48.202;11.326;2023-05-03T22:29:36;1024.70;;;10.16;36.42
46886;BME280;32622;48.202;11.326;2023-05-03T22:31:39;1024.59;;;10.53;36.49
46886;BME280;32622;48.202;11.326;2023-05-03T22:33:42;1024.58;;;10.59;36.11
46886;BME280;32622;48.202;11.326;2023-05-03T22:35:46;1024.74;;;9.75;37.06
46886;BME280;32622;48.202;11.326;2023-05-03T22:37:50;1024.81;;;9.44;37.53
46886;BME280;32622;48.202;11.326;2023-05-03T22:39:54;1024.66;;;10.12;36.42
46886;BME280;32622;48.202;11.326;2023-05-03T22:41:58;1024.86;;;9.21;38.59
46886;BME280;32622;48.202;11.326;2023-05-03T22:44:02;1024.79;;;9.38;38.00
46886;BME280;32622;48.202;11.326;2023-05-03T22:46:06;1024.88;;;9.02;38.80
46886;BME280;32622;48.202;11.326;2023-05-03T22:48:10;1024.55;;;10.40;37.12
46886;BME280;32622;48.202;11.326;2023-05-03T22:50:14;1024.66;;;10.04;36.74
46886;BME280;32622;48.202;11.326;2023-05-03T22:52:18;1024.61;;;10.11;36.76
46886;BME280;32622;48.202;11.326;2023-05-03T22:54:21;1024.63;;;9.91;36.91
46886;BME280;32622;48.202;11.326;2023-05-03T22:56:25;1024.62;;;9.81;36.88
46886;BME280;32622;48.202;11.326;2023-05-03T22:58:28;1024.46;;;10.64;36.46
46886;BME280;32622;48.202;11.326;2023-05-03T23:00:32;1024.45;;;10.96;36.05
46886;BME280;32622;48.202;11.326;2023-05-03T23:02:35;1024.34;;;11.40;35.24
46886;BME280;32622;48.202;11.326;2023-05-03T23:04:38;1024.39;;;11.34;35.04
46886;BME280;32622;48.202;11.326;2023-05-03T23:06:42;1024.35;;;11.39;34.97
46886;BME280;32622;48.202;11.326;2023-05-03T23:08:46;1024.34;;;11.36;34.89
46886;BME280;32622;48.202;11.326;2023-05-03T23:10:49;1024.46;;;10.98;35.12
46886;BME280;32622;48.202;11.326;2023-05-03T23:12:53;1024.50;;;10.88;35.53
46886;BME280;32622;48.202;11.326;2023-05-03T23:14:58;1024.52;;;10.68;35.71
46886;BME280;32622;48.202;11.326;2023-05-03T23:17:02;1024.67;;;9.84;37.05
46886;BME280;32622;48.202;11.326;2023-05-03T23:19:06;1024.83;;;8.97;38.42
46886;BME280;32622;48.202;11.326;2023-05-03T23:21:09;1024.49;;;10.36;37.20
46886;BME280;32622;48.202;11.326;2023-05-03T23:23:13;1024.74;;;9.05;38.01
46886;BME280;32622;48.202;11.326;2023-05-03T23:25:16;1024.73;;;9.14;38.52
46886;BME280;32622;48.202;11.326;2023-05-03T23:27:19;1024.61;;;9.66;38.01
46886;BME280;32622;48.202;11.326;2023-05-03T23:29:23;1024.59;;;9.64;38.35
46886;BME280;32622;48.202;11.326;2023-05-03T23:31:26;1024.55;;;9.90;37.67
46886;BME280;32622;48.202;11.326;2023-05-03T23:33:30;1024.61;;;9.50;37.56
46886;BME280;32622;48.202;11.326;2023-05-03T23:35:33;1024.81;;;8.58;38.69
46886;BME280;32622;48.202;11.326;2023-05-03T23:37:37;1024.82;;;8.45;39.16
46886;BME280;32622;48.202;11.326;2023-05-03T23:39:42;1024.47;;;9.80;37.05
46886;BME280;32622;48.202;11.326;2023-05-03T23:41:46;1024.50;;;9.64;36.74
46886;BME280;32622;48.202;11.326;2023-05-03T23:43:49;1024.38;;;10.20;36.73
46886;BME280;32622;48.202;11.326;2023-05-03T23:45:52;1024.44;;;9.89;36.41
46886;BME280;32622;48.202;11.326;2023-05-03T23:47:56;1024.31;;;10.38;36.39
46886;BME280;32622;48.202;11.326;2023-05-03T23:50:00;1024.73;;;8.37;38.56
46886;BME280;32622;48.202;11.326;2023-05-03T23:52:03;1024.49;;;9.50;37.17
46886;BME280;32622;48.202;11.326;2023-05-03T23:54:07;1024.50;;;9.53;37.19
46886;BME280;32622;48.202;11.326;2023-05-03T23:56:10;1024.36;;;10.03;36.56
46886;BME280;32622;48.202;11.326;2023-05-03T23:58:13;1024.32;;;10.19;36.64
